createdAt,value
2022-08-14T00:03:57.955Z,9.60
2022-08-14T00:08:59.771Z,9.43
2022-08-14T00:14:02.339Z,9.10
2022-08-14T00:19:06.375Z,9.25
2022-08-14T00:24:23.256Z,9.80
2022-08-14T00:29:33.213Z,8.73
2022-08-14T00:34:47.047Z,9.13
2022-08-14T00:39:51.090Z,8.68
2022-08-14T00:44:53.323Z,9.27
2022-08-14T00:49:57.400Z,9.80
2022-08-14T00:54:59.992Z,10.30
2022-08-14T01:00:34.225Z,10.63
2022-08-14T01:05:41.903Z,8.80
2022-08-14T01:10:55.714Z,9.07
2022-08-14T01:16:02.744Z,8.95
2022-08-14T01:21:15.899Z,9.43
2022-08-14T01:26:34.856Z,9.27
2022-08-14T01:31:53.202Z,8.85
2022-08-14T01:36:55.305Z,8.77
2022-08-14T01:42:00.723Z,9.05
2022-08-14T01:47:21.840Z,8.32
2022-08-14T01:52:34.494Z,8.70
2022-08-14T01:58:00.951Z,8.43
2022-08-14T02:03:09.450Z,8.18
2022-08-14T02:08:11.469Z,8.95
2022-08-14T02:13:13.584Z,8.10
2022-08-14T02:18:18.583Z,8.80
2022-08-14T02:23:27.786Z,7.50
2022-08-14T02:28:58.582Z,8.32
2022-08-14T02:33:56.588Z,7.85
2022-08-14T02:38:59.466Z,8.07
2022-08-14T02:44:02.145Z,8.40
2022-08-14T02:49:06.628Z,8.32
2022-08-14T02:54:09.858Z,8.48
2022-08-14T02:59:17.120Z,8.70
2022-08-14T03:04:20.409Z,8.77
2022-08-14T03:09:23.145Z,9.02
2022-08-14T03:14:27.629Z,8.02
2022-08-14T03:19:29.669Z,9.05
2022-08-14T03:24:32.573Z,8.15
2022-08-14T03:29:36.285Z,9.02
2022-08-14T03:34:48.452Z,8.32
2022-08-14T03:39:57.654Z,7.88
2022-08-14T03:45:19.913Z,8.30
2022-08-14T03:50:27.697Z,7.60
2022-08-14T03:55:33.044Z,7.93
2022-08-14T04:00:43.049Z,8.35
2022-08-14T04:05:49.099Z,8.02
2022-08-14T04:10:51.437Z,8.90
2022-08-14T04:16:01.480Z,8.77
2022-08-14T04:21:06.536Z,8.10
2022-08-14T04:26:14.234Z,8.35
2022-08-14T04:31:18.713Z,8.95
2022-08-14T04:37:00.482Z,9.38
2022-08-14T04:42:20.929Z,8.45
2022-08-14T04:47:46.428Z,9.10
2022-08-14T04:52:49.350Z,8.70
2022-08-14T04:57:56.910Z,9.57
2022-08-14T05:03:03.386Z,9.63
2022-08-14T05:08:31.918Z,9.25
2022-08-14T05:13:53.217Z,8.73
2022-08-14T05:19:17.849Z,9.57
2022-08-14T05:24:20.770Z,9.45
2022-08-14T05:29:23.695Z,9.60
2022-08-14T05:34:31.862Z,9.20
2022-08-14T05:39:34.204Z,8.73
2022-08-14T05:44:36.163Z,9.00
2022-08-14T05:49:38.391Z,9.60
2022-08-14T05:54:40.209Z,11.10
2022-08-14T05:59:42.081Z,11.02
2022-08-14T06:04:48.520Z,11.55
2022-08-14T06:09:52.397Z,9.88
2022-08-14T06:14:54.553Z,8.93
2022-08-14T06:19:56.658Z,9.52
2022-08-14T06:24:58.506Z,10.20
2022-08-14T06:30:00.489Z,9.43
2022-08-14T06:35:13.167Z,10.60
2022-08-14T06:40:26.124Z,11.13
2022-08-14T06:45:31.404Z,12.48
2022-08-14T06:50:33.587Z,9.70
2022-08-14T06:55:37.077Z,9.38
2022-08-14T07:01:01.985Z,8.80
2022-08-14T07:06:11.606Z,9.52
2022-08-14T07:11:14.279Z,10.57
2022-08-14T07:16:16.952Z,12.65
2022-08-14T07:21:20.921Z,10.20
2022-08-14T07:26:22.811Z,9.35
2022-08-14T07:31:25.765Z,9.48
2022-08-14T07:36:30.601Z,10.02
2022-08-14T07:41:35.716Z,8.98
2022-08-14T07:46:38.057Z,9.43
2022-08-14T07:51:42.221Z,9.40
2022-08-14T07:56:48.942Z,8.80
2022-08-14T08:01:53.385Z,9.00
2022-08-14T08:07:00.805Z,8.57
2022-08-14T08:12:09.179Z,8.63
2022-08-14T08:17:12.874Z,7.90
2022-08-14T08:22:16.065Z,8.40
2022-08-14T08:27:19.929Z,8.02
2022-08-14T08:32:30.036Z,9.85
2022-08-14T08:37:40.186Z,8.20
2022-08-14T08:42:44.838Z,9.15
2022-08-14T08:47:47.521Z,7.90
2022-08-14T08:52:54.660Z,8.25
2022-08-14T09:03:10.517Z,9.00
2022-08-14T09:08:30.661Z,8.30
2022-08-14T09:13:33.934Z,8.73
2022-08-14T09:18:36.010Z,8.63
2022-08-14T09:24:27.899Z,9.05
2022-08-14T09:29:00.180Z,9.25
2022-08-14T09:34:35.437Z,9.25
2022-08-14T09:40:16.546Z,8.65
2022-08-14T09:45:39.671Z,8.95
2022-08-14T09:50:48.502Z,8.30
2022-08-14T09:55:59.499Z,8.15
2022-08-14T10:01:09.486Z,7.45
2022-08-14T10:06:20.234Z,8.57
2022-08-14T10:11:34.915Z,9.68
2022-08-14T10:16:43.934Z,8.00
2022-08-14T10:23:10.917Z,8.40
2022-08-14T10:27:30.278Z,8.25
2022-08-14T10:32:51.040Z,8.73
2022-08-14T10:37:53.261Z,9.20
2022-08-14T10:42:56.720Z,8.80
2022-08-14T10:48:08.774Z,7.65
2022-08-14T10:53:13.472Z,7.70
2022-08-14T10:58:34.318Z,8.77
2022-08-14T11:03:56.226Z,9.05
2022-08-14T11:08:59.329Z,13.07
2022-08-14T11:14:01.138Z,23.08
2022-08-14T11:19:08.464Z,19.20
2022-08-14T11:24:55.402Z,12.00
2022-08-14T11:29:36.946Z,12.23
2022-08-14T11:34:38.830Z,11.77
2022-08-14T11:39:41.631Z,13.18
2022-08-14T11:44:47.361Z,13.88
2022-08-14T11:49:52.004Z,13.57
2022-08-14T11:54:58.408Z,15.23
2022-08-14T12:00:08.555Z,13.45
2022-08-14T12:05:10.510Z,11.52
2022-08-14T12:10:26.511Z,11.73
2022-08-14T12:15:36.052Z,12.77
2022-08-14T12:20:45.755Z,12.32
2022-08-14T12:26:39.916Z,13.18
2022-08-14T12:31:44.201Z,13.40
2022-08-14T12:36:47.090Z,12.25
2022-08-14T12:42:06.240Z,14.05
2022-08-14T12:47:17.022Z,13.13
2022-08-14T12:52:56.024Z,12.25
2022-08-14T12:58:35.518Z,12.05
2022-08-14T13:03:30.494Z,13.30
2022-08-14T13:08:34.479Z,13.25
2022-08-14T13:13:39.024Z,11.18
2022-08-14T13:18:47.062Z,11.10
2022-08-14T13:23:49.742Z,10.45
2022-08-14T13:29:02.578Z,10.63
2022-08-14T13:34:06.727Z,9.25
2022-08-14T13:39:09.249Z,9.00
2022-08-14T13:44:22.044Z,10.10
2022-08-14T13:49:26.149Z,9.65
2022-08-14T13:54:34.261Z,10.07
2022-08-14T13:59:38.191Z,8.82
2022-08-14T14:04:49.239Z,8.30
2022-08-14T14:09:54.577Z,8.43
2022-08-14T14:14:59.230Z,7.97
2022-08-14T14:20:15.288Z,8.48
2022-08-14T14:25:45.579Z,8.10
2022-08-14T14:30:57.152Z,8.40
2022-08-14T14:36:01.660Z,9.55
2022-08-14T14:41:05.708Z,9.40
2022-08-14T14:46:09.678Z,7.95
2022-08-14T14:51:17.817Z,8.48
2022-08-14T14:56:50.490Z,8.57
2022-08-14T15:01:48.948Z,8.57
2022-08-14T15:06:53.084Z,7.93
2022-08-14T15:11:55.398Z,8.40
2022-08-14T15:16:59.238Z,8.75
2022-08-14T15:22:02.376Z,8.32
2022-08-14T15:27:07.266Z,7.93
2022-08-14T15:32:10.488Z,7.65
2022-08-14T15:37:13.103Z,7.78
2022-08-14T15:42:18.526Z,7.15
2022-08-14T15:47:29.010Z,8.07
2022-08-14T15:52:35.342Z,7.45
2022-08-14T15:57:38.874Z,7.65
2022-08-14T16:02:54.773Z,8.60
2022-08-14T16:07:57.568Z,7.90
2022-08-14T16:12:59.581Z,8.50
2022-08-14T16:18:03.813Z,8.98
2022-08-14T16:23:11.681Z,7.80
2022-08-14T16:28:28.699Z,8.75
2022-08-14T16:33:59.120Z,8.73
2022-08-14T16:39:00.296Z,8.48
2022-08-14T16:44:21.558Z,8.35
2022-08-14T16:49:50.644Z,8.57
2022-08-14T16:54:48.108Z,8.10
2022-08-14T16:59:58.887Z,8.38
2022-08-14T17:05:17.088Z,8.77
2022-08-14T17:15:30.186Z,7.90
2022-08-14T17:20:53.769Z,8.48
2022-08-14T17:25:54.429Z,9.55
2022-08-14T17:31:02.718Z,9.13
2022-08-14T17:36:21.025Z,8.55
2022-08-14T17:41:32.941Z,9.05
2022-08-14T17:46:43.257Z,9.18
2022-08-14T17:52:16.603Z,9.07
2022-08-14T17:57:24.422Z,8.68
2022-08-14T18:02:31.392Z,8.90
2022-08-14T18:08:00.075Z,10.27
2022-08-14T18:12:58.679Z,9.43
2022-08-14T18:18:05.461Z,9.02
2022-08-14T18:23:10.401Z,8.77
2022-08-14T18:28:32.162Z,8.80
2022-08-14T18:33:51.733Z,8.55
2022-08-14T18:39:24.130Z,8.43
2022-08-14T18:44:49.250Z,9.05
2022-08-14T18:49:57.662Z,9.45
2022-08-14T18:55:20.776Z,8.63
2022-08-14T19:00:32.086Z,8.98
2022-08-14T19:05:49.206Z,9.60
2022-08-14T19:10:57.662Z,9.45
2022-08-14T19:16:13.367Z,10.73
2022-08-14T19:21:42.409Z,9.77
2022-08-14T19:26:54.443Z,9.80
2022-08-14T19:31:59.237Z,9.18
2022-08-14T19:37:06.317Z,9.55
2022-08-14T19:42:14.896Z,9.63
2022-08-14T19:52:43.682Z,8.95
2022-08-14T19:57:58.129Z,10.02
2022-08-14T20:03:11.194Z,10.10
2022-08-14T20:10:58.269Z,10.35
2022-08-14T20:13:38.700Z,9.93
2022-08-14T20:18:49.350Z,10.27
2022-08-14T20:24:30.506Z,9.60
2022-08-14T20:29:37.955Z,10.25
2022-08-14T20:34:51.566Z,10.05
2022-08-14T20:39:55.538Z,9.27
2022-08-14T20:45:23.676Z,9.82
2022-08-14T20:50:28.255Z,9.20
2022-08-14T20:55:37.296Z,9.20
2022-08-14T21:00:51.860Z,12.10
2022-08-14T21:06:02.924Z,8.55
2022-08-14T21:11:23.691Z,9.38
2022-08-14T21:16:35.730Z,8.40
2022-08-14T21:21:42.475Z,8.57
2022-08-14T21:26:52.724Z,9.15
2022-08-14T21:32:20.375Z,8.55
2022-08-14T21:37:23.574Z,10.02
2022-08-14T21:42:27.873Z,9.35
2022-08-14T21:47:29.952Z,9.13
2022-08-14T21:52:50.676Z,7.97
2022-08-14T21:58:38.362Z,7.65
2022-08-14T22:03:24.089Z,9.43
2022-08-14T22:08:27.300Z,8.95
2022-08-14T22:13:32.162Z,7.38
2022-08-14T22:18:34.566Z,7.60
2022-08-14T22:23:38.545Z,7.30
2022-08-14T22:28:44.821Z,8.57
2022-08-14T22:33:49.992Z,8.00
2022-08-14T22:38:59.760Z,7.50
2022-08-14T22:44:10.899Z,9.18
2022-08-14T22:49:16.609Z,8.35
2022-08-14T22:54:52.276Z,9.02
2022-08-14T22:59:55.504Z,7.97
2022-08-14T23:04:58.347Z,9.35
2022-08-14T23:10:31.126Z,8.43
2022-08-14T23:15:24.138Z,8.80
2022-08-14T23:20:31.812Z,8.40
2022-08-14T23:25:58.781Z,9.00
2022-08-14T23:30:55.704Z,8.82
2022-08-14T23:35:59.688Z,9.07
2022-08-14T23:41:12.629Z,8.82
2022-08-14T23:46:20.372Z,8.98
2022-08-14T23:51:23.268Z,13.30
2022-08-14T23:56:30.250Z,8.82
